Time;durP1;ratioP1;P1;durP2;ratioP2;P2;SDS_P1;SDS_P2;PMS_P1;PMS_P2;Temp;Humidity;BMP_temperature;BMP_pressure;BME280_temperature;BME280_humidity;BME280_pressure;Samples;Min_cycle;Max_cycle;Signal;HPM_P1;HPM_P2
2023/05/24 00:02:18;;;;;;;4.57;1.10;;;;;;;;;;4932961;28;20044;-67
2023/05/24 00:04:44;;;;;;;7.07;1.63;;;;;;;;;;4932047;28;20050;-68
2023/05/24 00:07:10;;;;;;;7.95;1.95;;;;;;;;;;4934078;28;20091;-67
2023/05/24 00:09:35;;;;;;;7.90;1.65;;;;;;;;;;4934081;28;20042;-67
2023/05/24 00:12:01;;;;;;;6.78;1.50;;;;;;;;;;4917213;28;20043;-68
2023/05/24 00:14:26;;;;;;;7.72;1.60;;;;;;;;;;4938689;28;20046;-67
2023/05/24 00:16:52;;;;;;;5.70;2.08;;;;;;;;;;4936877;28;20439;-67
2023/05/24 00:19:17;;;;;;;5.90;1.83;;;;;;;;;;4939023;28;20039;-68
2023/05/24 00:21:47;;;;;;;4.10;1.50;;;;;;;;;;4939720;28;20053;-67
2023/05/24 00:24:12;;;;;;;4.38;1.65;;;;;;;;;;4929814;28;20042;-67
2023/05/24 00:26:38;;;;;;;7.25;2.28;;;;;;;;;;4927664;28;20419;-67
2023/05/24 00:29:04;;;;;;;6.75;1.88;;;;;;;;;;4939451;28;20374;-68
2023/05/24 00:31:29;;;;;;;7.80;2.10;;;;;;;;;;4930878;28;20744;-67
2023/05/24 00:33:54;;;;;;;7.25;1.92;;;;;;;;;;4930622;28;20119;-67
2023/05/24 00:36:20;;;;;;;3.15;1.40;;;;;;;;;;4941530;28;20447;-67
2023/05/24 00:38:45;;;;;;;7.35;1.60;;;;;;;;;;4930664;28;20045;-67
2023/05/24 00:41:11;;;;;;;7.72;2.15;;;;;;;;;;4928461;28;20043;-67
2023/05/24 00:43:36;;;;;;;5.15;2.35;;;;;;;;;;4938308;28;20110;-67
2023/05/24 00:46:43;;;;;;;9.70;2.10;;;;;;;;;;4939462;28;20118;-67
2023/05/24 00:49:08;;;;;;;8.23;2.15;;;;;;;;;;4922126;28;20142;-68
2023/05/24 00:51:35;;;;;;;9.52;1.83;;;;;;;;;;4917315;28;20119;-67
2023/05/24 00:54:01;;;;;;;7.63;1.77;;;;;;;;;;4934108;28;20039;-67
2023/05/24 00:56:27;;;;;;;8.02;1.88;;;;;;;;;;4941316;28;20045;-67
2023/05/24 00:58:55;;;;;;;7.50;2.50;;;;;;;;;;4939065;28;20041;-68
2023/05/24 01:01:24;;;;;;;7.65;1.98;;;;;;;;;;4934054;28;20047;-67
2023/05/24 01:03:53;;;;;;;5.28;1.60;;;;;;;;;;4896465;28;20059;-67
2023/05/24 01:06:19;;;;;;;8.80;2.00;;;;;;;;;;4939712;28;20055;-68
2023/05/24 01:09:06;;;;;;;9.20;2.65;;;;;;;;;;4939817;28;20031;-67
2023/05/24 01:11:54;;;;;;;6.05;2.20;;;;;;;;;;4936431;28;20037;-68
2023/05/24 01:14:35;;;;;;;11.27;2.13;;;;;;;;;;4899241;28;20043;-67
2023/05/24 01:17:23;;;;;;;6.70;2.30;;;;;;;;;;4931669;28;20449;-67
2023/05/24 01:20:01;;;;;;;6.03;1.80;;;;;;;;;;4937834;28;20031;-67
2023/05/24 01:22:39;;;;;;;6.30;1.63;;;;;;;;;;4921247;28;20100;-68
2023/05/24 01:25:13;;;;;;;7.63;1.98;;;;;;;;;;4938561;28;20497;-67
2023/05/24 01:27:39;;;;;;;5.30;1.75;;;;;;;;;;4933431;28;20034;-67
2023/05/24 01:30:06;;;;;;;7.28;1.63;;;;;;;;;;4937490;28;20110;-67
2023/05/24 01:32:32;;;;;;;10.10;2.33;;;;;;;;;;4937343;28;20475;-68
2023/05/24 01:34:57;;;;;;;7.38;2.13;;;;;;;;;;4919158;28;20052;-67
2023/05/24 01:37:23;;;;;;;7.28;2.13;;;;;;;;;;4936140;28;20043;-68
2023/05/24 01:39:49;;;;;;;7.40;2.45;;;;;;;;;;4939743;28;20041;-67
2023/05/24 01:42:47;;;;;;;11.13;2.60;;;;;;;;;;4926192;28;20051;-67
2023/05/24 01:45:28;;;;;;;7.75;2.38;;;;;;;;;;4919199;28;20054;-67
2023/05/24 01:48:30;;;;;;;10.15;2.50;;;;;;;;;;4932102;28;20043;-67
2023/05/24 01:50:59;;;;;;;6.60;1.75;;;;;;;;;;4935466;28;20260;-67
2023/05/24 01:53:32;;;;;;;9.25;2.47;;;;;;;;;;4939926;28;20472;-67
2023/05/24 01:56:00;;;;;;;7.00;2.38;;;;;;;;;;4903508;28;20276;-68
2023/05/24 01:58:28;;;;;;;9.93;2.00;;;;;;;;;;4933257;28;20078;-67
2023/05/24 02:00:54;;;;;;;9.77;2.53;;;;;;;;;;4931506;28;20043;-67
2023/05/24 02:03:20;;;;;;;5.03;1.35;;;;;;;;;;4933402;28;20551;-67
2023/05/24 02:05:46;;;;;;;11.38;2.60;;;;;;;;;;4939759;28;20079;-67
2023/05/24 02:08:11;;;;;;;4.35;1.80;;;;;;;;;;4925922;28;20122;-67
2023/05/24 02:10:38;;;;;;;8.60;2.22;;;;;;;;;;4925868;28;20038;-67
2023/05/24 02:13:04;;;;;;;4.28;1.88;;;;;;;;;;4933790;28;20102;-67
2023/05/24 02:15:30;;;;;;;12.50;2.33;;;;;;;;;;4938604;28;20035;-67
2023/05/24 02:17:56;;;;;;;9.05;1.90;;;;;;;;;;4933560;28;20040;-67
2023/05/24 02:20:22;;;;;;;8.57;1.92;;;;;;;;;;4936684;28;20118;-67
2023/05/24 02:22:48;;;;;;;6.53;1.98;;;;;;;;;;4900922;28;20039;-67
2023/05/24 02:25:13;;;;;;;6.38;2.05;;;;;;;;;;4934007;28;20134;-67
2023/05/24 02:27:40;;;;;;;9.38;2.55;;;;;;;;;;4937683;28;20039;-67
2023/05/24 02:30:06;;;;;;;11.60;2.38;;;;;;;;;;4936549;28;20423;-67
2023/05/24 02:32:33;;;;;;;6.75;2.42;;;;;;;;;;4926783;28;20558;-67
2023/05/24 02:35:00;;;;;;;6.40;1.58;;;;;;;;;;4937240;28;20102;-67
2023/05/24 02:37:26;;;;;;;7.70;2.60;;;;;;;;;;4887225;28;20039;-67
2023/05/24 02:39:52;;;;;;;8.88;2.28;;;;;;;;;;4936145;28;20511;-67
2023/05/24 02:42:17;;;;;;;8.30;2.22;;;;;;;;;;4935964;28;20053;-67
2023/05/24 02:44:46;;;;;;;7.93;1.95;;;;;;;;;;4935896;28;20108;-68
2023/05/24 02:47:12;;;;;;;16.88;2.50;;;;;;;;;;4926622;28;20043;-68
2023/05/24 02:49:37;;;;;;;7.63;2.60;;;;;;;;;;4915885;28;20039;-67
2023/05/24 02:52:03;;;;;;;12.30;2.72;;;;;;;;;;4914606;28;20039;-67
2023/05/24 02:54:28;;;;;;;8.13;2.05;;;;;;;;;;4927350;28;20805;-67
2023/05/24 02:56:55;;;;;;;10.52;1.80;;;;;;;;;;4926788;28;20416;-67
2023/05/24 02:59:21;;;;;;;10.70;2.25;;;;;;;;;;4929754;28;20126;-67
2023/05/24 03:01:46;;;;;;;9.43;2.85;;;;;;;;;;4933019;28;20170;-67
2023/05/24 03:04:11;;;;;;;6.40;2.05;;;;;;;;;;4921926;28;20511;-68
2023/05/24 03:06:37;;;;;;;10.23;2.45;;;;;;;;;;4932140;28;20042;-68
2023/05/24 03:09:02;;;;;;;9.73;2.20;;;;;;;;;;4932716;28;20102;-67
2023/05/24 03:11:27;;;;;;;5.85;2.67;;;;;;;;;;4932860;28;20039;-68
2023/05/24 03:13:53;;;;;;;5.40;1.98;;;;;;;;;;4934147;28;20035;-67
2023/05/24 03:16:19;;;;;;;7.65;1.80;;;;;;;;;;4935572;28;20043;-67
2023/05/24 03:18:45;;;;;;;11.95;2.40;;;;;;;;;;4915901;28;20121;-67
2023/05/24 03:21:10;;;;;;;6.75;2.80;;;;;;;;;;4931830;28;20873;-67
2023/05/24 03:23:36;;;;;;;7.20;2.17;;;;;;;;;;4939390;28;20042;-67
2023/05/24 03:26:01;;;;;;;11.63;2.70;;;;;;;;;;4936523;28;20109;-67
2023/05/24 03:28:27;;;;;;;9.38;2.55;;;;;;;;;;4938994;28;20035;-67
2023/05/24 03:30:53;;;;;;;9.68;2.15;;;;;;;;;;4933712;28;20110;-67
2023/05/24 03:33:18;;;;;;;9.10;1.95;;;;;;;;;;4912989;28;20032;-67
2023/05/24 03:35:44;;;;;;;10.13;3.33;;;;;;;;;;4938806;28;20634;-67
2023/05/24 03:38:09;;;;;;;9.52;2.30;;;;;;;;;;4936788;28;20138;-67
2023/05/24 03:40:35;;;;;;;10.85;3.38;;;;;;;;;;4936225;28;20656;-67
2023/05/24 03:43:00;;;;;;;9.85;2.70;;;;;;;;;;4931621;28;20066;-67
2023/05/24 03:45:26;;;;;;;9.23;2.30;;;;;;;;;;4931529;28;20066;-67
2023/05/24 03:47:51;;;;;;;10.23;2.65;;;;;;;;;;4914517;28;20250;-67
2023/05/24 03:50:17;;;;;;;6.72;2.35;;;;;;;;;;4934208;28;20039;-67
2023/05/24 03:52:42;;;;;;;8.00;2.03;;;;;;;;;;4941240;28;20042;-67
2023/05/24 03:55:07;;;;;;;6.35;2.22;;;;;;;;;;4935853;28;20131;-67
2023/05/24 03:57:33;;;;;;;7.75;2.20;;;;;;;;;;4942951;28;20045;-67
2023/05/24 03:59:59;;;;;;;9.52;2.58;;;;;;;;;;4936858;28;20511;-68
2023/05/24 04:02:25;;;;;;;10.35;1.88;;;;;;;;;;4925899;28;20443;-67
2023/05/24 04:04:50;;;;;;;9.68;2.15;;;;;;;;;;4936865;28;20035;-67
2023/05/24 04:07:16;;;;;;;4.82;2.13;;;;;;;;;;4940679;28;20061;-67
2023/05/24 04:09:42;;;;;;;6.07;1.67;;;;;;;;;;4942385;28;20034;-68
2023/05/24 04:12:07;;;;;;;5.07;2.08;;;;;;;;;;4942778;28;20035;-68
2023/05/24 04:14:34;;;;;;;6.32;2.10;;;;;;;;;;4934669;28;20053;-68
2023/05/24 04:17:02;;;;;;;5.15;2.03;;;;;;;;;;4926167;28;20051;-68
2023/05/24 04:19:28;;;;;;;8.90;2.47;;;;;;;;;;4939075;28;20038;-67
2023/05/24 04:21:53;;;;;;;8.48;2.10;;;;;;;;;;4933852;28;20049;-67
2023/05/24 04:24:18;;;;;;;4.53;1.63;;;;;;;;;;4941925;28;20054;-67
2023/05/24 04:26:44;;;;;;;9.15;1.75;;;;;;;;;;4941125;28;20046;-67
2023/05/24 04:29:09;;;;;;;10.35;2.70;;;;;;;;;;4920113;28;20130;-67
2023/05/24 04:31:35;;;;;;;6.07;1.98;;;;;;;;;;4941898;28;20073;-67
2023/05/24 04:34:01;;;;;;;6.55;1.92;;;;;;;;;;4940221;28;20098;-67
2023/05/24 04:36:27;;;;;;;8.13;1.70;;;;;;;;;;4942590;28;20054;-67
2023/05/24 04:38:54;;;;;;;5.57;2.40;;;;;;;;;;4939987;28;20041;-68
2023/05/24 04:41:21;;;;;;;9.77;2.50;;;;;;;;;;4939017;28;20058;-67
2023/05/24 04:43:46;;;;;;;9.32;2.22;;;;;;;;;;4921714;28;20066;-68
2023/05/24 04:46:12;;;;;;;5.57;2.13;;;;;;;;;;4939265;28;20544;-67
2023/05/24 04:48:37;;;;;;;5.53;1.77;;;;;;;;;;4940381;28;20039;-67
2023/05/24 04:51:03;;;;;;;6.82;1.75;;;;;;;;;;4939489;28;20134;-67
2023/05/24 04:53:28;;;;;;;6.80;1.80;;;;;;;;;;4939598;28;20464;-67
2023/05/24 04:55:54;;;;;;;8.13;2.63;;;;;;;;;;4931509;28;20642;-67
2023/05/24 04:58:19;;;;;;;6.80;2.13;;;;;;;;;;4919506;28;20053;-68
2023/05/24 05:00:44;;;;;;;11.65;2.47;;;;;;;;;;4929606;28;20464;-68
2023/05/24 05:03:10;;;;;;;12.63;2.80;;;;;;;;;;4932827;28;20035;-67
2023/05/24 05:05:35;;;;;;;9.88;2.70;;;;;;;;;;4940066;28;20193;-67
2023/05/24 05:08:02;;;;;;;7.80;2.10;;;;;;;;;;4936810;28;20054;-67
2023/05/24 05:10:27;;;;;;;9.00;2.22;;;;;;;;;;4925372;28;20134;-68
2023/05/24 05:12:53;;;;;;;11.20;3.20;;;;;;;;;;4925593;28;20043;-67
2023/05/24 05:15:22;;;;;;;13.30;2.88;;;;;;;;;;4934571;28;20251;-67
2023/05/24 05:17:48;;;;;;;15.18;2.20;;;;;;;;;;4927995;28;20042;-67
2023/05/24 05:20:13;;;;;;;13.82;2.53;;;;;;;;;;4933337;28;20039;-67
2023/05/24 05:22:39;;;;;;;10.38;2.40;;;;;;;;;;4933891;28;20069;-68
2023/05/24 05:25:05;;;;;;;9.35;2.42;;;;;;;;;;4926715;28;20669;-67
2023/05/24 05:27:30;;;;;;;10.13;2.63;;;;;;;;;;4905786;28;20059;-67
2023/05/24 05:29:55;;;;;;;12.02;3.22;;;;;;;;;;4936534;28;20039;-67
2023/05/24 05:32:21;;;;;;;6.97;2.28;;;;;;;;;;4932473;28;20054;-67
2023/05/24 05:34:46;;;;;;;6.90;2.08;;;;;;;;;;4938398;28;20049;-67
2023/05/24 05:37:12;;;;;;;8.05;2.47;;;;;;;;;;4938340;28;20031;-67
2023/05/24 05:39:37;;;;;;;10.60;3.25;;;;;;;;;;4921946;28;20031;-67
2023/05/24 05:42:03;;;;;;;7.97;2.58;;;;;;;;;;4937292;28;20046;-67
2023/05/24 05:44:28;;;;;;;15.15;3.17;;;;;;;;;;4935237;28;20039;-67
2023/05/24 05:46:54;;;;;;;11.57;2.95;;;;;;;;;;4932968;28;20094;-67
2023/05/24 05:49:19;;;;;;;9.82;2.95;;;;;;;;;;4939235;28;20043;-67
2023/05/24 05:51:45;;;;;;;14.07;3.42;;;;;;;;;;4940347;28;20039;-67
2023/05/24 05:54:17;;;;;;;15.10;3.85;;;;;;;;;;4918199;28;20039;-67
2023/05/24 05:56:46;;;;;;;10.73;3.40;;;;;;;;;;4936358;28;20427;-67
2023/05/24 05:59:15;;;;;;;10.68;3.17;;;;;;;;;;4938490;28;20062;-67
2023/05/24 06:01:40;;;;;;;11.48;3.22;;;;;;;;;;4936661;28;20046;-67
2023/05/24 06:04:06;;;;;;;15.45;4.32;;;;;;;;;;4935882;28;20039;-67
2023/05/24 06:06:32;;;;;;;13.75;4.22;;;;;;;;;;4926354;28;20046;-67
2023/05/24 06:08:59;;;;;;;6.72;3.05;;;;;;;;;;4912734;28;20055;-67
2023/05/24 06:11:25;;;;;;;11.90;3.22;;;;;;;;;;4938351;28;20043;-67
2023/05/24 06:13:51;;;;;;;9.05;3.85;;;;;;;;;;4938610;28;20034;-67
2023/05/24 06:16:17;;;;;;;10.13;3.53;;;;;;;;;;4933278;28;20050;-67
2023/05/24 06:18:42;;;;;;;14.95;4.07;;;;;;;;;;4937575;28;20590;-67
2023/05/24 06:21:09;;;;;;;11.20;3.47;;;;;;;;;;4918118;28;20118;-67
2023/05/24 06:23:37;;;;;;;13.93;3.20;;;;;;;;;;4933227;28;20154;-67
2023/05/24 06:26:03;;;;;;;11.63;3.25;;;;;;;;;;4934399;28;20046;-67
2023/05/24 06:28:28;;;;;;;13.95;3.70;;;;;;;;;;4929408;28;20043;-67
2023/05/24 06:30:54;;;;;;;12.50;3.65;;;;;;;;;;4927264;28;20717;-67
2023/05/24 06:33:19;;;;;;;12.20;3.15;;;;;;;;;;4928669;28;20037;-67
2023/05/24 06:35:45;;;;;;;11.90;3.10;;;;;;;;;;4930094;28;20393;-67
2023/05/24 06:38:10;;;;;;;8.30;2.92;;;;;;;;;;4936899;28;20389;-67
2023/05/24 06:40:36;;;;;;;14.27;3.80;;;;;;;;;;4935933;28;20046;-67
2023/05/24 06:43:01;;;;;;;9.25;3.22;;;;;;;;;;4935437;28;20035;-67
2023/05/24 06:45:26;;;;;;;11.68;3.35;;;;;;;;;;4937213;28;20538;-67
2023/05/24 06:47:52;;;;;;;10.40;3.88;;;;;;;;;;4925599;28;20040;-67
2023/05/24 06:50:17;;;;;;;13.20;3.15;;;;;;;;;;4924378;28;20040;-67
2023/05/24 06:52:43;;;;;;;14.20;3.22;;;;;;;;;;4939149;28;20074;-67
2023/05/24 06:55:09;;;;;;;9.85;3.78;;;;;;;;;;4937254;28;20046;-67
2023/05/24 06:57:34;;;;;;;11.77;3.70;;;;;;;;;;4940243;28;20455;-67
2023/05/24 07:00:00;;;;;;;13.80;3.72;;;;;;;;;;4921029;28;20039;-66
2023/05/24 07:02:27;;;;;;;11.38;3.83;;;;;;;;;;4918726;28;20638;-66
2023/05/24 07:04:52;;;;;;;10.65;3.15;;;;;;;;;;4928294;28;20054;-67
2023/05/24 07:07:19;;;;;;;13.88;3.88;;;;;;;;;;4941648;28;20042;-67
2023/05/24 07:09:46;;;;;;;10.90;3.53;;;;;;;;;;4940556;28;20046;-67
2023/05/24 07:12:11;;;;;;;9.63;3.42;;;;;;;;;;4931784;28;20066;-67
2023/05/24 07:14:37;;;;;;;11.68;3.83;;;;;;;;;;4935732;28;20500;-67
2023/05/24 07:17:03;;;;;;;11.32;3.85;;;;;;;;;;4916889;28;20054;-67
2023/05/24 07:19:28;;;;;;;11.02;3.50;;;;;;;;;;4928512;28;20051;-67
2023/05/24 07:21:55;;;;;;;10.45;4.40;;;;;;;;;;4921371;28;20042;-67
2023/05/24 07:24:21;;;;;;;16.08;3.35;;;;;;;;;;4935464;28;20047;-67
2023/05/24 07:26:48;;;;;;;13.00;4.38;;;;;;;;;;4938995;28;20434;-67
2023/05/24 07:29:14;;;;;;;12.07;3.40;;;;;;;;;;4936055;28;20082;-67
2023/05/24 07:31:39;;;;;;;11.32;3.10;;;;;;;;;;4925460;28;20122;-67
2023/05/24 07:34:05;;;;;;;11.07;2.92;;;;;;;;;;4929903;28;20036;-67
2023/05/24 07:36:32;;;;;;;11.15;3.22;;;;;;;;;;4928738;28;20786;-67
2023/05/24 07:38:59;;;;;;;10.52;3.35;;;;;;;;;;4938280;28;21035;-67
2023/05/24 07:41:26;;;;;;;12.45;2.85;;;;;;;;;;4938114;28;20043;-67
2023/05/24 07:43:52;;;;;;;10.77;3.47;;;;;;;;;;4928516;28;20043;-67
2023/05/24 07:46:17;;;;;;;12.63;3.55;;;;;;;;;;4906171;28;20047;-67
2023/05/24 07:48:43;;;;;;;9.15;2.90;;;;;;;;;;4940855;28;20052;-67
2023/05/24 07:51:08;;;;;;;14.65;3.55;;;;;;;;;;4943180;28;20042;-67
2023/05/24 07:53:36;;;;;;;6.82;2.88;;;;;;;;;;4943111;28;20208;-67
2023/05/24 07:56:02;;;;;;;9.55;3.10;;;;;;;;;;4941061;28;20126;-67
2023/05/24 07:58:27;;;;;;;11.05;3.03;;;;;;;;;;4927243;28;20113;-67
2023/05/24 08:00:53;;;;;;;10.15;3.03;;;;;;;;;;4937164;28;20062;-67
2023/05/24 08:03:18;;;;;;;9.07;2.75;;;;;;;;;;4942768;28;20113;-67
2023/05/24 08:05:43;;;;;;;14.55;3.92;;;;;;;;;;4943295;28;20049;-67
2023/05/24 08:08:09;;;;;;;11.70;2.85;;;;;;;;;;4940311;28;20039;-67
2023/05/24 08:10:34;;;;;;;8.20;3.10;;;;;;;;;;4943826;28;20042;-67
2023/05/24 08:13:00;;;;;;;10.63;3.65;;;;;;;;;;4923179;28;20032;-67
2023/05/24 08:15:25;;;;;;;14.98;3.55;;;;;;;;;;4938621;28;20054;-67
2023/05/24 08:17:50;;;;;;;11.43;3.88;;;;;;;;;;4938765;28;20047;-67
2023/05/24 08:20:16;;;;;;;8.43;2.70;;;;;;;;;;4942647;28;20043;-67
2023/05/24 08:22:42;;;;;;;10.10;3.42;;;;;;;;;;4936654;28;20122;-67
2023/05/24 08:25:08;;;;;;;7.95;3.05;;;;;;;;;;4938386;28;20431;-67
2023/05/24 08:27:34;;;;;;;9.73;2.55;;;;;;;;;;4919617;28;20055;-67
2023/05/24 08:30:00;;;;;;;10.45;2.67;;;;;;;;;;4933870;28;20798;-67
2023/05/24 08:32:26;;;;;;;11.40;3.65;;;;;;;;;;4940501;28;20459;-67
2023/05/24 08:34:51;;;;;;;12.25;2.67;;;;;;;;;;4938650;28;20073;-67
2023/05/24 08:37:22;;;;;;;9.80;2.80;;;;;;;;;;4941159;28;20121;-67
2023/05/24 08:39:47;;;;;;;6.78;3.17;;;;;;;;;;4929134;28;20491;-67
2023/05/24 08:42:14;;;;;;;9.50;2.80;;;;;;;;;;4935501;28;20050;-67
2023/05/24 08:44:48;;;;;;;7.93;3.17;;;;;;;;;;4945977;28;20097;-67
2023/05/24 08:47:14;;;;;;;9.13;2.63;;;;;;;;;;4937582;28;20051;-67
2023/05/24 08:49:40;;;;;;;9.07;3.75;;;;;;;;;;4945145;28;20110;-67
2023/05/24 08:52:10;;;;;;;7.82;2.80;;;;;;;;;;4935396;28;20043;-67
2023/05/24 08:54:35;;;;;;;12.05;3.08;;;;;;;;;;4933108;28;20051;-67
2023/05/24 08:57:02;;;;;;;9.23;3.03;;;;;;;;;;4942049;28;20496;-67
2023/05/24 08:59:27;;;;;;;8.02;3.20;;;;;;;;;;4940507;28;20085;-67
2023/05/24 09:01:53;;;;;;;12.40;3.00;;;;;;;;;;4936980;28;20091;-67
2023/05/24 09:04:20;;;;;;;9.93;2.90;;;;;;;;;;4933412;28;20046;-67
2023/05/24 09:06:46;;;;;;;9.32;2.80;;;;;;;;;;4928492;28;20031;-67
2023/05/24 09:09:17;;;;;;;9.20;2.60;;;;;;;;;;4932509;28;20115;-67
2023/05/24 09:11:46;;;;;;;7.27;2.03;;;;;;;;;;4937841;28;20054;-67
2023/05/24 09:14:12;;;;;;;11.50;3.03;;;;;;;;;;4934931;28;20036;-67
2023/05/24 09:16:38;;;;;;;9.38;2.20;;;;;;;;;;4935924;28;20039;-67
2023/05/24 09:19:03;;;;;;;10.13;2.75;;;;;;;;;;4934269;28;20035;-67
2023/05/24 09:21:29;;;;;;;6.38;2.13;;;;;;;;;;4919155;28;20484;-67
2023/05/24 09:23:54;;;;;;;8.00;2.58;;;;;;;;;;4934536;28;20206;-67
2023/05/24 09:26:20;;;;;;;10.35;2.63;;;;;;;;;;4940414;28;20043;-67
2023/05/24 09:28:46;;;;;;;8.60;2.90;;;;;;;;;;4940674;28;20039;-67
2023/05/24 09:31:12;;;;;;;9.70;2.88;;;;;;;;;;4934775;28;20055;-67
2023/05/24 09:33:38;;;;;;;6.10;2.22;;;;;;;;;;4934075;28;20043;-67
2023/05/24 09:36:05;;;;;;;7.00;2.10;;;;;;;;;;4924338;28;20559;-67
2023/05/24 09:38:31;;;;;;;8.35;2.13;;;;;;;;;;4941306;28;20030;-67
2023/05/24 09:41:04;;;;;;;6.55;2.03;;;;;;;;;;4939152;28;20507;-67
2023/05/24 09:43:31;;;;;;;8.00;1.98;;;;;;;;;;4940613;28;20704;-67
2023/05/24 09:45:58;;;;;;;7.75;2.22;;;;;;;;;;4933989;28;20077;-67
2023/05/24 09:48:24;;;;;;;5.32;2.33;;;;;;;;;;4918562;28;20059;-67
2023/05/24 09:51:04;;;;;;;6.25;2.00;;;;;;;;;;4940745;28;20664;-67
2023/05/24 09:53:32;;;;;;;7.30;2.40;;;;;;;;;;4943081;28;20069;-67
2023/05/24 09:55:59;;;;;;;9.80;2.42;;;;;;;;;;4941959;28;20047;-67
2023/05/24 09:58:30;;;;;;;5.30;1.98;;;;;;;;;;4924492;28;20065;-67
2023/05/24 10:01:05;;;;;;;8.63;2.28;;;;;;;;;;4904536;28;20491;-67
2023/05/24 10:03:30;;;;;;;7.72;2.10;;;;;;;;;;4939613;28;20385;-67
2023/05/24 10:05:57;;;;;;;8.45;2.15;;;;;;;;;;4942763;28;20097;-67
2023/05/24 10:08:23;;;;;;;4.80;2.00;;;;;;;;;;4935300;28;20114;-67
2023/05/24 10:10:48;;;;;;;5.20;2.10;;;;;;;;;;4941222;28;20047;-67
2023/05/24 10:13:16;;;;;;;6.93;2.05;;;;;;;;;;4922795;28;20049;-67
2023/05/24 10:15:43;;;;;;;8.93;2.30;;;;;;;;;;4941304;28;20512;-67
2023/05/24 10:18:09;;;;;;;5.40;2.50;;;;;;;;;;4943450;28;20482;-67
2023/05/24 10:20:35;;;;;;;9.07;2.58;;;;;;;;;;4941334;28;20083;-67
2023/05/24 10:23:06;;;;;;;7.75;2.08;;;;;;;;;;4938799;28;20500;-67
2023/05/24 10:25:34;;;;;;;7.30;1.92;;;;;;;;;;4929926;28;20050;-67
2023/05/24 10:28:06;;;;;;;6.25;2.20;;;;;;;;;;4912262;28;20069;-67
2023/05/24 10:30:36;;;;;;;9.07;2.50;;;;;;;;;;4933414;28;20209;-68
2023/05/24 10:33:04;;;;;;;6.63;2.03;;;;;;;;;;4935858;28;20042;-67
2023/05/24 10:35:31;;;;;;;6.88;2.40;;;;;;;;;;4938920;28;20523;-67
2023/05/24 10:37:56;;;;;;;5.47;1.95;;;;;;;;;;4918283;28;20126;-68
2023/05/24 10:40:24;;;;;;;4.72;2.20;;;;;;;;;;4922694;28;20133;-68
2023/05/24 10:42:51;;;;;;;4.80;1.70;;;;;;;;;;4935516;28;20039;-69
2023/05/24 10:45:22;;;;;;;7.85;2.67;;;;;;;;;;4935545;28;20067;-69
2023/05/24 10:47:48;;;;;;;6.43;2.03;;;;;;;;;;4932168;28;20502;-69
2023/05/24 10:50:21;;;;;;;6.32;2.00;;;;;;;;;;4937240;28;20039;-69
2023/05/24 10:52:48;;;;;;;7.07;2.15;;;;;;;;;;4914635;28;20400;-69
2023/05/24 10:55:14;;;;;;;10.27;2.58;;;;;;;;;;4937854;28;20039;-69
2023/05/24 10:57:40;;;;;;;5.63;2.00;;;;;;;;;;4939315;28;20046;-69
2023/05/24 11:00:27;;;;;;;9.43;2.38;;;;;;;;;;4934822;28;20050;-69
2023/05/24 11:03:09;;;;;;;6.93;2.42;;;;;;;;;;4927501;28;20077;-69
2023/05/24 11:05:48;;;;;;;6.68;1.98;;;;;;;;;;4905069;28;20047;-69
2023/05/24 11:08:14;;;;;;;8.70;2.33;;;;;;;;;;4937207;28;20043;-69
2023/05/24 11:10:42;;;;;;;4.60;1.60;;;;;;;;;;4939492;28;20098;-69
2023/05/24 11:13:08;;;;;;;8.95;2.60;;;;;;;;;;4933425;28;20039;-69
2023/05/24 11:15:34;;;;;;;5.43;2.17;;;;;;;;;;4928862;28;20047;-69
2023/05/24 11:18:05;;;;;;;5.72;2.20;;;;;;;;;;4914845;28;20491;-69
2023/05/24 11:20:32;;;;;;;7.07;2.80;;;;;;;;;;4934693;28;20391;-69
2023/05/24 11:22:58;;;;;;;6.25;2.15;;;;;;;;;;4935861;28;20035;-69
2023/05/24 11:25:25;;;;;;;9.65;2.92;;;;;;;;;;4934002;28;20146;-69
2023/05/24 11:27:50;;;;;;;5.75;1.98;;;;;;;;;;4937223;28;20486;-69
2023/05/24 11:30:16;;;;;;;5.40;2.20;;;;;;;;;;4916493;28;20134;-69
2023/05/24 11:32:46;;;;;;;5.60;2.42;;;;;;;;;;4934589;28;20669;-69
2023/05/24 11:35:11;;;;;;;8.30;2.33;;;;;;;;;;4935575;28;20114;-69
2023/05/24 11:37:37;;;;;;;7.32;2.05;;;;;;;;;;4935781;28;20130;-69
2023/05/24 11:40:04;;;;;;;3.58;1.48;;;;;;;;;;4935351;28;20031;-69
2023/05/24 11:42:29;;;;;;;6.88;1.80;;;;;;;;;;4938313;28;20141;-69
2023/05/24 11:44:55;;;;;;;6.50;2.08;;;;;;;;;;4918329;28;20039;-69
2023/05/24 11:47:23;;;;;;;6.95;2.13;;;;;;;;;;4931656;28;20435;-69
2023/05/24 11:49:52;;;;;;;5.55;2.03;;;;;;;;;;4936134;28;20428;-69
2023/05/24 11:52:17;;;;;;;10.57;2.10;;;;;;;;;;4938774;28;20043;-69
2023/05/24 11:54:42;;;;;;;4.47;1.80;;;;;;;;;;4939533;28;20127;-69
2023/05/24 11:57:11;;;;;;;9.07;2.05;;;;;;;;;;4919015;28;20142;-69
2023/05/24 11:59:37;;;;;;;5.72;2.33;;;;;;;;;;4934742;28;20039;-75
2023/05/24 12:02:04;;;;;;;6.00;2.45;;;;;;;;;;4941980;28;20070;-69
2023/05/24 12:04:31;;;;;;;7.22;2.00;;;;;;;;;;4943254;28;20031;-69
2023/05/24 12:06:57;;;;;;;8.35;2.47;;;;;;;;;;4935809;28;20043;-69
2023/05/24 12:09:22;;;;;;;6.38;2.17;;;;;;;;;;4933356;28;20066;-69
2023/05/24 12:11:49;;;;;;;5.03;1.70;;;;;;;;;;4916815;28;20839;-69
2023/05/24 12:14:31;;;;;;;4.40;1.73;;;;;;;;;;4939243;28;20153;-69
2023/05/24 12:16:57;;;;;;;5.97;2.13;;;;;;;;;;4942393;28;20050;-69
2023/05/24 12:19:28;;;;;;;5.32;1.83;;;;;;;;;;4936167;28;20047;-69
2023/05/24 12:21:56;;;;;;;6.30;2.28;;;;;;;;;;4932870;28;20039;-69
2023/05/24 12:24:24;;;;;;;5.93;1.73;;;;;;;;;;4873660;28;20041;-70
2023/05/24 12:26:49;;;;;;;7.50;1.90;;;;;;;;;;4940007;28;20041;-69
2023/05/24 12:29:16;;;;;;;8.23;2.10;;;;;;;;;;4939346;28;20043;-69
2023/05/24 12:31:46;;;;;;;5.60;1.70;;;;;;;;;;4925325;28;20398;-69
2023/05/24 12:34:12;;;;;;;5.15;1.70;;;;;;;;;;4934029;28;20039;-69
2023/05/24 12:36:38;;;;;;;7.05;1.65;;;;;;;;;;4925743;28;20133;-69
2023/05/24 12:39:20;;;;;;;6.65;2.20;;;;;;;;;;4939108;28;20579;-69
2023/05/24 12:41:53;;;;;;;5.10;1.63;;;;;;;;;;4937887;28;20043;-69
2023/05/24 12:44:26;;;;;;;4.28;1.65;;;;;;;;;;4941112;28;20042;-69
2023/05/24 12:46:56;;;;;;;7.00;1.80;;;;;;;;;;4918401;28;20043;-69
2023/05/24 12:49:23;;;;;;;5.13;1.63;;;;;;;;;;4943171;28;20081;-69
2023/05/24 12:51:49;;;;;;;6.88;1.77;;;;;;;;;;4939907;28;20039;-69
2023/05/24 12:54:17;;;;;;;6.28;1.70;;;;;;;;;;4934560;28;20035;-69
2023/05/24 12:56:42;;;;;;;6.65;2.00;;;;;;;;;;4941059;28;20133;-69
2023/05/24 12:59:07;;;;;;;4.93;1.73;;;;;;;;;;4939044;28;20579;-69
2023/05/24 13:01:33;;;;;;;5.63;1.80;;;;;;;;;;4918410;28;20047;-69
2023/05/24 13:03:58;;;;;;;4.93;1.90;;;;;;;;;;4933647;28;20039;-69
2023/05/24 13:06:24;;;;;;;7.93;2.10;;;;;;;;;;4939936;28;20040;-69
2023/05/24 13:08:49;;;;;;;5.35;1.73;;;;;;;;;;4939999;28;20563;-70
2023/05/24 13:11:15;;;;;;;7.60;2.13;;;;;;;;;;4936968;28;20051;-70
2023/05/24 13:13:41;;;;;;;5.95;2.33;;;;;;;;;;4917310;28;20040;-70
2023/05/24 13:16:07;;;;;;;8.70;1.80;;;;;;;;;;4913277;28;20050;-69
2023/05/24 13:18:33;;;;;;;5.88;2.05;;;;;;;;;;4940694;28;20427;-70
2023/05/24 13:20:59;;;;;;;5.32;1.80;;;;;;;;;;4930020;28;20044;-70
2023/05/24 13:23:28;;;;;;;5.40;1.67;;;;;;;;;;4932144;28;20043;-70
2023/05/24 13:25:54;;;;;;;5.13;1.92;;;;;;;;;;4942542;28;20504;-70
2023/05/24 13:28:20;;;;;;;4.93;1.77;;;;;;;;;;4934548;28;20056;-70
2023/05/24 13:30:46;;;;;;;6.72;2.13;;;;;;;;;;4931127;28;20094;-70
2023/05/24 13:33:12;;;;;;;5.60;1.83;;;;;;;;;;4944102;28;20500;-70
2023/05/24 13:35:39;;;;;;;5.72;2.22;;;;;;;;;;4945386;28;20126;-70
2023/05/24 13:38:05;;;;;;;7.10;1.98;;;;;;;;;;4942015;28;20478;-70
2023/05/24 13:40:31;;;;;;;4.07;1.60;;;;;;;;;;4939759;28;20110;-69
2023/05/24 13:42:57;;;;;;;4.35;1.77;;;;;;;;;;4924415;28;20126;-70
2023/05/24 13:45:22;;;;;;;4.00;1.50;;;;;;;;;;4940942;28;20047;-69
2023/05/24 13:47:48;;;;;;;5.72;1.92;;;;;;;;;;4941616;28;20050;-69
2023/05/24 13:50:14;;;;;;;6.40;1.95;;;;;;;;;;4943783;28;20047;-69
2023/05/24 13:52:39;;;;;;;4.38;1.40;;;;;;;;;;4940807;28;20141;-69
2023/05/24 13:55:05;;;;;;;5.47;1.75;;;;;;;;;;4944332;28;20046;-69
2023/05/24 13:57:32;;;;;;;4.60;1.85;;;;;;;;;;4922648;28;20082;-69
2023/05/24 13:59:59;;;;;;;3.55;1.80;;;;;;;;;;4941435;28;20103;-70
2023/05/24 14:02:25;;;;;;;4.28;1.80;;;;;;;;;;4940847;28;20047;-69
2023/05/24 14:04:51;;;;;;;4.03;1.67;;;;;;;;;;4941812;28;20082;-69
2023/05/24 14:07:18;;;;;;;6.75;2.42;;;;;;;;;;4945797;28;20475;-70
2023/05/24 14:09:44;;;;;;;5.43;1.75;;;;;;;;;;4930454;28;20512;-69
2023/05/24 14:12:09;;;;;;;8.85;1.90;;;;;;;;;;4935031;28;20055;-69
2023/05/24 14:14:35;;;;;;;5.10;1.88;;;;;;;;;;4942635;28;20126;-69
2023/05/24 14:17:01;;;;;;;7.07;1.70;;;;;;;;;;4942351;28;20496;-69
2023/05/24 14:19:26;;;;;;;5.72;1.63;;;;;;;;;;4944374;28;20038;-70
2023/05/24 14:21:52;;;;;;;5.20;1.85;;;;;;;;;;4941138;28;20141;-69
2023/05/24 14:24:17;;;;;;;7.45;1.73;;;;;;;;;;4934126;28;20043;-70
2023/05/24 14:26:43;;;;;;;7.30;2.38;;;;;;;;;;4934165;28;20764;-69
2023/05/24 14:29:08;;;;;;;5.47;1.70;;;;;;;;;;4944333;28;20151;-69
2023/05/24 14:31:40;;;;;;;4.50;1.60;;;;;;;;;;4941272;28;20094;-69
2023/05/24 14:34:07;;;;;;;6.60;1.98;;;;;;;;;;4938817;28;20441;-70
2023/05/24 14:36:33;;;;;;;6.32;1.85;;;;;;;;;;4944806;28;20039;-69
2023/05/24 14:38:58;;;;;;;6.30;2.53;;;;;;;;;;4923159;28;20431;-70
2023/05/24 14:41:24;;;;;;;6.90;1.50;;;;;;;;;;4943372;28;20122;-69